Terminal Aerodrome Forecast
Issued by NWS Northern Indiana

Home | Current Version | Previous Version | Graphics & Text | Print | Product List | Glossary On
Versions: 1 2 3 4 5 6 7 8 9 10 11 12 13 14
000
FTUS43 KIWX 151725
TAFFWA
TAF
KFWA 151725Z 1518/1618 20013G23KT 3SM SHRA OVC012
     FM152000 22013G23KT 4SM SHRA OVC008
     FM152200 23012G22KT P6SM VCSH OVC008
     FM160000 26011G20KT P6SM BKN015
     FM160400 27011G20KT P6SM BKN020
     FM161300 29009KT P6SM BKN020=

USA.gov is the U.S. government's official web portal to all federal, state and local government web resources and services.